sensor_id;sensor_type;location;lat;lon;timestamp;P1;durP1;ratioP1;P2;durP2;ratioP2
59569;SDS011;45393;44.646;10.900;2022-10-16T00:00:46;30.33;;;22.90;;
59569;SDS011;45393;44.646;10.900;2022-10-16T00:03:12;33.20;;;24.43;;
59569;SDS011;45393;44.646;10.900;2022-10-16T00:05:42;31.63;;;23.97;;
59569;SDS011;45393;44.646;10.900;2022-10-16T00:08:08;40.70;;;26.97;;
59569;SDS011;45393;44.646;10.900;2022-10-16T00:10:35;34.03;;;25.50;;
59569;SDS011;45393;44.646;10.900;2022-10-16T00:13:01;32.17;;;23.97;;
59569;SDS011;45393;44.646;10.900;2022-10-16T00:15:28;29.87;;;23.73;;
59569;SDS011;45393;44.646;10.900;2022-10-16T00:17:54;31.77;;;22.97;;
59569;SDS011;45393;44.646;10.900;2022-10-16T00:20:20;27.70;;;21.43;;
59569;SDS011;45393;44.646;10.900;2022-10-16T00:22:46;36.27;;;26.03;;
59569;SDS011;45393;44.646;10.900;2022-10-16T00:25:12;31.67;;;24.50;;
59569;SDS011;45393;44.646;10.900;2022-10-16T00:27:38;30.70;;;24.30;;
59569;SDS011;45393;44.646;10.900;2022-10-16T00:30:04;35.17;;;25.20;;
59569;SDS011;45393;44.646;10.900;2022-10-16T00:32:33;35.57;;;24.53;;
59569;SDS011;45393;44.646;10.900;2022-10-16T00:34:59;34.43;;;25.30;;
59569;SDS011;45393;44.646;10.900;2022-10-16T00:37:25;34.90;;;25.97;;
59569;SDS011;45393;44.646;10.900;2022-10-16T00:39:51;38.47;;;27.07;;
59569;SDS011;45393;44.646;10.900;2022-10-16T00:42:17;38.37;;;28.60;;
59569;SDS011;45393;44.646;10.900;2022-10-16T00:45:02;40.73;;;30.33;;
59569;SDS011;45393;44.646;10.900;2022-10-16T00:47:29;35.83;;;27.33;;
59569;SDS011;45393;44.646;10.900;2022-10-16T00:50:38;33.77;;;24.60;;
59569;SDS011;45393;44.646;10.900;2022-10-16T00:52:46;33.63;;;26.80;;
59569;SDS011;45393;44.646;10.900;2022-10-16T00:55:12;39.47;;;28.50;;
59569;SDS011;45393;44.646;10.900;2022-10-16T00:57:39;36.10;;;26.17;;
59569;SDS011;45393;44.646;10.900;2022-10-16T01:00:06;35.13;;;26.33;;
59569;SDS011;45393;44.646;10.900;2022-10-16T01:02:33;33.40;;;25.27;;
59569;SDS011;45393;44.646;10.900;2022-10-16T01:04:59;33.63;;;25.30;;
59569;SDS011;45393;44.646;10.900;2022-10-16T01:07:35;31.67;;;24.90;;
59569;SDS011;45393;44.646;10.900;2022-10-16T01:25:28;35.23;;;26.67;;
59569;SDS011;45393;44.646;10.900;2022-10-16T01:27:56;33.33;;;25.60;;
59569;SDS011;45393;44.646;10.900;2022-10-16T01:30:24;35.40;;;26.63;;
59569;SDS011;45393;44.646;10.900;2022-10-16T01:33:02;37.37;;;27.20;;
59569;SDS011;45393;44.646;10.900;2022-10-16T01:35:35;37.97;;;27.00;;
59569;SDS011;45393;44.646;10.900;2022-10-16T01:38:03;33.63;;;24.83;;
59569;SDS011;45393;44.646;10.900;2022-10-16T01:40:31;35.83;;;28.13;;
59569;SDS011;45393;44.646;10.900;2022-10-16T01:42:59;39.27;;;27.80;;
59569;SDS011;45393;44.646;10.900;2022-10-16T01:45:26;35.30;;;26.97;;
59569;SDS011;45393;44.646;10.900;2022-10-16T01:47:54;37.20;;;27.23;;
59569;SDS011;45393;44.646;10.900;2022-10-16T01:50:20;34.53;;;27.13;;
59569;SDS011;45393;44.646;10.900;2022-10-16T01:52:48;38.10;;;28.47;;
59569;SDS011;45393;44.646;10.900;2022-10-16T01:55:17;40.27;;;27.13;;
59569;SDS011;45393;44.646;10.900;2022-10-16T01:57:45;37.67;;;28.27;;
59569;SDS011;45393;44.646;10.900;2022-10-16T02:00:13;36.03;;;27.50;;
59569;SDS011;45393;44.646;10.900;2022-10-16T02:02:40;31.90;;;25.77;;
59569;SDS011;45393;44.646;10.900;2022-10-16T02:05:10;35.63;;;27.23;;
59569;SDS011;45393;44.646;10.900;2022-10-16T02:07:39;35.47;;;27.43;;
59569;SDS011;45393;44.646;10.900;2022-10-16T02:10:07;35.07;;;26.87;;
59569;SDS011;45393;44.646;10.900;2022-10-16T02:12:33;37.67;;;27.67;;
59569;SDS011;45393;44.646;10.900;2022-10-16T02:15:02;37.73;;;27.43;;
59569;SDS011;45393;44.646;10.900;2022-10-16T02:17:28;36.83;;;27.87;;
59569;SDS011;45393;44.646;10.900;2022-10-16T02:19:54;40.90;;;28.20;;
59569;SDS011;45393;44.646;10.900;2022-10-16T02:22:23;38.03;;;28.13;;
59569;SDS011;45393;44.646;10.900;2022-10-16T02:28:04;39.20;;;27.93;;
59569;SDS011;45393;44.646;10.900;2022-10-16T02:30:39;38.50;;;28.60;;
59569;SDS011;45393;44.646;10.900;2022-10-16T02:33:07;36.13;;;27.60;;
59569;SDS011;45393;44.646;10.900;2022-10-16T02:35:35;37.77;;;26.83;;
59569;SDS011;45393;44.646;10.900;2022-10-16T02:38:01;39.23;;;29.60;;
59569;SDS011;45393;44.646;10.900;2022-10-16T02:40:28;39.73;;;28.73;;
59569;SDS011;45393;44.646;10.900;2022-10-16T02:42:55;41.80;;;30.93;;
59569;SDS011;45393;44.646;10.900;2022-10-16T02:45:21;41.27;;;30.23;;
59569;SDS011;45393;44.646;10.900;2022-10-16T02:47:48;49.60;;;34.27;;
59569;SDS011;45393;44.646;10.900;2022-10-16T02:50:14;45.70;;;33.07;;
59569;SDS011;45393;44.646;10.900;2022-10-16T02:52:41;44.63;;;33.20;;
59569;SDS011;45393;44.646;10.900;2022-10-16T02:55:07;50.77;;;36.13;;
59569;SDS011;45393;44.646;10.900;2022-10-16T02:57:33;51.73;;;36.27;;
59569;SDS011;45393;44.646;10.900;2022-10-16T03:00:02;49.47;;;35.27;;
59569;SDS011;45393;44.646;10.900;2022-10-16T03:02:28;50.20;;;37.73;;
59569;SDS011;45393;44.646;10.900;2022-10-16T03:04:54;51.37;;;35.97;;
59569;SDS011;45393;44.646;10.900;2022-10-16T03:07:20;55.57;;;40.53;;
59569;SDS011;45393;44.646;10.900;2022-10-16T03:09:46;59.37;;;39.53;;
59569;SDS011;45393;44.646;10.900;2022-10-16T03:12:12;51.43;;;38.97;;
59569;SDS011;45393;44.646;10.900;2022-10-16T03:14:38;61.27;;;42.17;;
59569;SDS011;45393;44.646;10.900;2022-10-16T03:17:05;62.97;;;45.53;;
59569;SDS011;45393;44.646;10.900;2022-10-16T03:19:31;69.07;;;47.23;;
59569;SDS011;45393;44.646;10.900;2022-10-16T03:21:57;59.30;;;40.93;;
59569;SDS011;45393;44.646;10.900;2022-10-16T03:24:23;71.17;;;48.17;;
59569;SDS011;45393;44.646;10.900;2022-10-16T03:26:49;71.40;;;49.00;;
59569;SDS011;45393;44.646;10.900;2022-10-16T03:29:15;74.87;;;49.57;;
59569;SDS011;45393;44.646;10.900;2022-10-16T03:31:41;70.93;;;49.00;;
59569;SDS011;45393;44.646;10.900;2022-10-16T03:34:07;86.63;;;57.83;;
59569;SDS011;45393;44.646;10.900;2022-10-16T03:36:33;89.20;;;61.07;;
59569;SDS011;45393;44.646;10.900;2022-10-16T03:39:00;86.90;;;58.77;;
59569;SDS011;45393;44.646;10.900;2022-10-16T03:41:26;78.23;;;53.53;;
59569;SDS011;45393;44.646;10.900;2022-10-16T03:43:52;72.87;;;50.63;;
59569;SDS011;45393;44.646;10.900;2022-10-16T03:46:18;71.53;;;49.93;;
59569;SDS011;45393;44.646;10.900;2022-10-16T03:48:44;75.97;;;50.60;;
59569;SDS011;45393;44.646;10.900;2022-10-16T03:51:10;73.90;;;50.00;;
59569;SDS011;45393;44.646;10.900;2022-10-16T03:53:36;75.77;;;50.17;;
59569;SDS011;45393;44.646;10.900;2022-10-16T03:56:02;68.43;;;47.60;;
59569;SDS011;45393;44.646;10.900;2022-10-16T03:58:28;68.07;;;46.70;;
59569;SDS011;45393;44.646;10.900;2022-10-16T04:00:54;66.97;;;46.70;;
59569;SDS011;45393;44.646;10.900;2022-10-16T04:03:21;72.27;;;48.87;;
59569;SDS011;45393;44.646;10.900;2022-10-16T04:05:47;62.07;;;43.27;;
59569;SDS011;45393;44.646;10.900;2022-10-16T04:08:14;64.67;;;44.13;;
59569;SDS011;45393;44.646;10.900;2022-10-16T04:10:42;63.60;;;44.70;;
59569;SDS011;45393;44.646;10.900;2022-10-16T04:13:08;65.90;;;44.90;;
59569;SDS011;45393;44.646;10.900;2022-10-16T04:15:34;58.40;;;40.63;;
59569;SDS011;45393;44.646;10.900;2022-10-16T04:18:00;63.27;;;44.70;;
59569;SDS011;45393;44.646;10.900;2022-10-16T04:20:26;61.30;;;40.43;;
59569;SDS011;45393;44.646;10.900;2022-10-16T04:22:53;61.27;;;41.37;;
59569;SDS011;45393;44.646;10.900;2022-10-16T04:25:19;64.27;;;44.20;;
59569;SDS011;45393;44.646;10.900;2022-10-16T04:27:45;61.50;;;41.80;;
59569;SDS011;45393;44.646;10.900;2022-10-16T04:30:11;57.90;;;39.33;;
59569;SDS011;45393;44.646;10.900;2022-10-16T04:32:37;54.03;;;37.47;;
59569;SDS011;45393;44.646;10.900;2022-10-16T04:35:03;53.57;;;37.73;;
59569;SDS011;45393;44.646;10.900;2022-10-16T04:37:29;50.67;;;36.40;;
59569;SDS011;45393;44.646;10.900;2022-10-16T04:39:55;62.67;;;40.03;;
59569;SDS011;45393;44.646;10.900;2022-10-16T04:42:21;63.03;;;40.30;;
59569;SDS011;45393;44.646;10.900;2022-10-16T04:44:47;64.63;;;42.50;;
59569;SDS011;45393;44.646;10.900;2022-10-16T04:47:13;69.67;;;44.93;;
59569;SDS011;45393;44.646;10.900;2022-10-16T04:49:40;66.73;;;43.20;;
59569;SDS011;45393;44.646;10.900;2022-10-16T04:52:06;80.87;;;49.80;;
59569;SDS011;45393;44.646;10.900;2022-10-16T04:54:34;86.43;;;55.60;;
59569;SDS011;45393;44.646;10.900;2022-10-16T04:57:00;95.53;;;56.97;;
59569;SDS011;45393;44.646;10.900;2022-10-16T04:59:26;101.03;;;60.90;;
59569;SDS011;45393;44.646;10.900;2022-10-16T05:01:52;97.23;;;58.70;;
59569;SDS011;45393;44.646;10.900;2022-10-16T05:04:18;108.10;;;67.27;;
59569;SDS011;45393;44.646;10.900;2022-10-16T05:06:44;114.20;;;66.37;;
59569;SDS011;45393;44.646;10.900;2022-10-16T05:09:10;119.33;;;67.77;;
59569;SDS011;45393;44.646;10.900;2022-10-16T05:11:36;116.47;;;66.17;;
59569;SDS011;45393;44.646;10.900;2022-10-16T05:14:02;120.83;;;69.67;;
59569;SDS011;45393;44.646;10.900;2022-10-16T05:16:28;116.90;;;69.17;;
59569;SDS011;45393;44.646;10.900;2022-10-16T05:18:55;129.43;;;71.60;;
59569;SDS011;45393;44.646;10.900;2022-10-16T05:21:22;122.83;;;72.57;;
59569;SDS011;45393;44.646;10.900;2022-10-16T05:23:48;118.77;;;70.47;;
59569;SDS011;45393;44.646;10.900;2022-10-16T05:26:14;120.80;;;69.50;;
59569;SDS011;45393;44.646;10.900;2022-10-16T05:28:40;118.53;;;69.57;;
59569;SDS011;45393;44.646;10.900;2022-10-16T05:31:07;130.80;;;76.37;;
59569;SDS011;45393;44.646;10.900;2022-10-16T05:33:33;131.90;;;77.80;;
59569;SDS011;45393;44.646;10.900;2022-10-16T05:36:03;123.77;;;71.83;;
59569;SDS011;45393;44.646;10.900;2022-10-16T05:38:30;118.30;;;70.50;;
59569;SDS011;45393;44.646;10.900;2022-10-16T05:40:56;119.83;;;71.17;;
59569;SDS011;45393;44.646;10.900;2022-10-16T05:43:23;129.93;;;74.37;;
59569;SDS011;45393;44.646;10.900;2022-10-16T05:45:55;139.23;;;80.67;;
59569;SDS011;45393;44.646;10.900;2022-10-16T05:48:22;128.40;;;75.13;;
59569;SDS011;45393;44.646;10.900;2022-10-16T05:50:48;131.13;;;72.87;;
59569;SDS011;45393;44.646;10.900;2022-10-16T05:53:14;111.47;;;66.33;;
59569;SDS011;45393;44.646;10.900;2022-10-16T05:55:40;111.83;;;65.90;;
59569;SDS011;45393;44.646;10.900;2022-10-16T05:58:06;122.13;;;71.17;;
59569;SDS011;45393;44.646;10.900;2022-10-16T06:00:32;125.50;;;73.93;;
59569;SDS011;45393;44.646;10.900;2022-10-16T06:02:58;106.83;;;67.13;;
59569;SDS011;45393;44.646;10.900;2022-10-16T06:05:25;98.40;;;61.57;;
59569;SDS011;45393;44.646;10.900;2022-10-16T06:07:51;119.00;;;70.00;;
59569;SDS011;45393;44.646;10.900;2022-10-16T06:10:17;109.20;;;66.10;;
59569;SDS011;45393;44.646;10.900;2022-10-16T06:12:44;104.73;;;65.83;;
59569;SDS011;45393;44.646;10.900;2022-10-16T06:15:10;101.83;;;59.37;;
59569;SDS011;45393;44.646;10.900;2022-10-16T06:17:36;95.90;;;58.87;;
59569;SDS011;45393;44.646;10.900;2022-10-16T06:20:02;87.80;;;55.93;;
59569;SDS011;45393;44.646;10.900;2022-10-16T06:22:28;78.13;;;48.83;;
59569;SDS011;45393;44.646;10.900;2022-10-16T06:24:54;76.37;;;46.13;;
59569;SDS011;45393;44.646;10.900;2022-10-16T06:27:20;72.07;;;44.90;;
59569;SDS011;45393;44.646;10.900;2022-10-16T06:29:46;62.47;;;42.33;;
59569;SDS011;45393;44.646;10.900;2022-10-16T06:32:12;58.80;;;41.43;;
59569;SDS011;45393;44.646;10.900;2022-10-16T06:34:38;56.40;;;39.47;;
59569;SDS011;45393;44.646;10.900;2022-10-16T06:37:06;49.70;;;34.83;;
59569;SDS011;45393;44.646;10.900;2022-10-16T06:39:32;55.50;;;37.60;;
59569;SDS011;45393;44.646;10.900;2022-10-16T06:41:58;58.57;;;39.23;;
59569;SDS011;45393;44.646;10.900;2022-10-16T06:44:24;56.63;;;37.23;;
59569;SDS011;45393;44.646;10.900;2022-10-16T06:46:50;52.07;;;36.80;;
59569;SDS011;45393;44.646;10.900;2022-10-16T06:49:16;48.50;;;34.80;;
59569;SDS011;45393;44.646;10.900;2022-10-16T06:51:47;56.27;;;37.10;;
59569;SDS011;45393;44.646;10.900;2022-10-16T06:54:14;52.13;;;34.87;;
59569;SDS011;45393;44.646;10.900;2022-10-16T06:56:40;51.33;;;35.57;;
59569;SDS011;45393;44.646;10.900;2022-10-16T06:59:06;52.73;;;36.00;;
59569;SDS011;45393;44.646;10.900;2022-10-16T07:01:32;49.70;;;35.47;;
59569;SDS011;45393;44.646;10.900;2022-10-16T07:03:59;50.23;;;34.60;;
59569;SDS011;45393;44.646;10.900;2022-10-16T07:06:25;48.63;;;34.60;;
59569;SDS011;45393;44.646;10.900;2022-10-16T07:08:52;51.90;;;38.10;;
59569;SDS011;45393;44.646;10.900;2022-10-16T07:11:19;53.37;;;36.20;;
59569;SDS011;45393;44.646;10.900;2022-10-16T07:13:46;51.10;;;36.43;;
59569;SDS011;45393;44.646;10.900;2022-10-16T07:16:13;53.00;;;38.87;;
59569;SDS011;45393;44.646;10.900;2022-10-16T07:18:41;50.60;;;35.90;;
59569;SDS011;45393;44.646;10.900;2022-10-16T07:21:13;47.97;;;33.77;;
59569;SDS011;45393;44.646;10.900;2022-10-16T07:23:39;46.57;;;33.17;;
59569;SDS011;45393;44.646;10.900;2022-10-16T07:26:06;39.57;;;30.53;;
59569;SDS011;45393;44.646;10.900;2022-10-16T07:28:32;40.97;;;29.63;;
59569;SDS011;45393;44.646;10.900;2022-10-16T07:31:05;39.70;;;28.03;;
59569;SDS011;45393;44.646;10.900;2022-10-16T07:33:32;40.27;;;28.53;;
59569;SDS011;45393;44.646;10.900;2022-10-16T07:35:59;38.37;;;27.70;;
59569;SDS011;45393;44.646;10.900;2022-10-16T07:38:25;38.20;;;27.40;;
59569;SDS011;45393;44.646;10.900;2022-10-16T07:41:01;35.70;;;25.30;;
59569;SDS011;45393;44.646;10.900;2022-10-16T07:43:27;37.13;;;26.27;;
59569;SDS011;45393;44.646;10.900;2022-10-16T07:45:53;34.43;;;25.27;;
59569;SDS011;45393;44.646;10.900;2022-10-16T07:48:20;33.10;;;26.40;;
59569;SDS011;45393;44.646;10.900;2022-10-16T07:50:47;34.77;;;24.77;;
59569;SDS011;45393;44.646;10.900;2022-10-16T07:53:13;45.07;;;29.53;;
59569;SDS011;45393;44.646;10.900;2022-10-16T07:55:39;36.03;;;26.50;;
59569;SDS011;45393;44.646;10.900;2022-10-16T07:58:05;34.73;;;25.17;;
59569;SDS011;45393;44.646;10.900;2022-10-16T08:00:32;40.37;;;26.43;;
59569;SDS011;45393;44.646;10.900;2022-10-16T08:02:58;37.30;;;28.07;;
59569;SDS011;45393;44.646;10.900;2022-10-16T08:05:28;42.77;;;27.90;;
59569;SDS011;45393;44.646;10.900;2022-10-16T08:07:54;42.43;;;28.23;;
59569;SDS011;45393;44.646;10.900;2022-10-16T08:10:21;43.00;;;28.90;;
59569;SDS011;45393;44.646;10.900;2022-10-16T08:12:48;36.27;;;28.17;;
59569;SDS011;45393;44.646;10.900;2022-10-16T08:15:14;42.50;;;30.70;;
59569;SDS011;45393;44.646;10.900;2022-10-16T08:17:40;45.90;;;32.67;;
59569;SDS011;45393;44.646;10.900;2022-10-16T08:20:06;43.47;;;33.00;;
59569;SDS011;45393;44.646;10.900;2022-10-16T08:22:32;41.67;;;30.43;;
59569;SDS011;45393;44.646;10.900;2022-10-16T08:24:58;41.23;;;30.47;;
59569;SDS011;45393;44.646;10.900;2022-10-16T08:27:25;42.37;;;30.87;;
59569;SDS011;45393;44.646;10.900;2022-10-16T08:29:51;40.23;;;31.70;;
59569;SDS011;45393;44.646;10.900;2022-10-16T08:32:17;38.77;;;28.43;;
59569;SDS011;45393;44.646;10.900;2022-10-16T08:34:43;50.77;;;34.50;;
59569;SDS011;45393;44.646;10.900;2022-10-16T08:37:09;41.03;;;31.43;;
59569;SDS011;45393;44.646;10.900;2022-10-16T08:39:37;42.50;;;31.60;;
59569;SDS011;45393;44.646;10.900;2022-10-16T08:45:02;47.73;;;33.97;;
59569;SDS011;45393;44.646;10.900;2022-10-16T08:50:13;51.77;;;35.90;;
59569;SDS011;45393;44.646;10.900;2022-10-16T08:52:41;50.53;;;36.70;;
59569;SDS011;45393;44.646;10.900;2022-10-16T08:55:25;48.47;;;33.70;;
59569;SDS011;45393;44.646;10.900;2022-10-16T08:57:54;44.57;;;32.47;;
59569;SDS011;45393;44.646;10.900;2022-10-16T09:00:20;42.67;;;31.60;;
59569;SDS011;45393;44.646;10.900;2022-10-16T09:02:55;41.23;;;30.20;;
59569;SDS011;45393;44.646;10.900;2022-10-16T09:05:45;41.63;;;31.30;;
59569;SDS011;45393;44.646;10.900;2022-10-16T09:10:44;44.33;;;30.53;;
59569;SDS011;45393;44.646;10.900;2022-10-16T09:15:55;38.53;;;30.73;;
59569;SDS011;45393;44.646;10.900;2022-10-16T09:21:37;52.20;;;35.30;;
59569;SDS011;45393;44.646;10.900;2022-10-16T09:23:43;44.47;;;32.37;;
59569;SDS011;45393;44.646;10.900;2022-10-16T09:26:10;48.83;;;35.33;;
59569;SDS011;45393;44.646;10.900;2022-10-16T09:28:37;44.83;;;32.60;;
59569;SDS011;45393;44.646;10.900;2022-10-16T09:31:03;45.40;;;33.80;;
59569;SDS011;45393;44.646;10.900;2022-10-16T09:33:30;46.43;;;33.30;;
59569;SDS011;45393;44.646;10.900;2022-10-16T09:35:59;43.30;;;34.23;;
59569;SDS011;45393;44.646;10.900;2022-10-16T09:40:55;49.20;;;35.37;;
59569;SDS011;45393;44.646;10.900;2022-10-16T09:43:22;48.90;;;35.17;;
59569;SDS011;45393;44.646;10.900;2022-10-16T09:46:00;42.47;;;31.97;;
59569;SDS011;45393;44.646;10.900;2022-10-16T09:48:30;46.87;;;33.13;;
59569;SDS011;45393;44.646;10.900;2022-10-16T09:50:58;45.23;;;33.03;;
59569;SDS011;45393;44.646;10.900;2022-10-16T09:53:24;49.87;;;34.63;;
59569;SDS011;45393;44.646;10.900;2022-10-16T09:55:52;44.60;;;34.00;;
59569;SDS011;45393;44.646;10.900;2022-10-16T09:58:21;46.33;;;32.63;;
59569;SDS011;45393;44.646;10.900;2022-10-16T10:00:51;47.47;;;34.33;;
59569;SDS011;45393;44.646;10.900;2022-10-16T10:03:55;46.43;;;34.17;;
59569;SDS011;45393;44.646;10.900;2022-10-16T10:06:30;45.63;;;32.83;;
59569;SDS011;45393;44.646;10.900;2022-10-16T10:11:40;43.17;;;30.70;;
59569;SDS011;45393;44.646;10.900;2022-10-16T10:14:21;44.87;;;31.23;;
59569;SDS011;45393;44.646;10.900;2022-10-16T10:16:47;40.13;;;31.40;;
59569;SDS011;45393;44.646;10.900;2022-10-16T10:19:15;44.13;;;32.10;;
59569;SDS011;45393;44.646;10.900;2022-10-16T10:21:41;40.10;;;28.03;;
59569;SDS011;45393;44.646;10.900;2022-10-16T10:24:11;39.67;;;30.43;;
59569;SDS011;45393;44.646;10.900;2022-10-16T10:26:38;43.67;;;32.67;;
59569;SDS011;45393;44.646;10.900;2022-10-16T10:29:12;38.33;;;29.57;;
59569;SDS011;45393;44.646;10.900;2022-10-16T10:31:49;39.43;;;29.00;;
59569;SDS011;45393;44.646;10.900;2022-10-16T10:36:44;37.73;;;27.57;;
59569;SDS011;45393;44.646;10.900;2022-10-16T10:39:21;48.93;;;34.17;;
59569;SDS011;45393;44.646;10.900;2022-10-16T10:44:26;36.23;;;26.90;;
59569;SDS011;45393;44.646;10.900;2022-10-16T10:46:57;37.67;;;28.23;;
59569;SDS011;45393;44.646;10.900;2022-10-16T10:57:08;31.97;;;22.97;;
59569;SDS011;45393;44.646;10.900;2022-10-16T11:02:25;32.47;;;23.07;;
59569;SDS011;45393;44.646;10.900;2022-10-16T11:07:44;33.07;;;21.73;;
59569;SDS011;45393;44.646;10.900;2022-10-16T11:10:15;29.67;;;21.53;;
59569;SDS011;45393;44.646;10.900;2022-10-16T11:12:42;29.20;;;19.90;;
59569;SDS011;45393;44.646;10.900;2022-10-16T11:15:12;23.47;;;16.20;;
59569;SDS011;45393;44.646;10.900;2022-10-16T11:17:42;26.80;;;19.40;;
59569;SDS011;45393;44.646;10.900;2022-10-16T11:20:21;22.33;;;17.30;;
59569;SDS011;45393;44.646;10.900;2022-10-16T11:22:53;23.10;;;15.63;;
59569;SDS011;45393;44.646;10.900;2022-10-16T11:30:26;30.07;;;22.43;;
59569;SDS011;45393;44.646;10.900;2022-10-16T11:35:30;20.70;;;15.77;;
59569;SDS011;45393;44.646;10.900;2022-10-16T11:37:58;29.47;;;19.63;;
59569;SDS011;45393;44.646;10.900;2022-10-16T11:40:31;27.57;;;18.43;;
59569;SDS011;45393;44.646;10.900;2022-10-16T11:45:36;22.03;;;15.97;;
59569;SDS011;45393;44.646;10.900;2022-10-16T11:48:13;19.57;;;15.37;;
59569;SDS011;45393;44.646;10.900;2022-10-16T11:53:16;22.00;;;14.77;;
59569;SDS011;45393;44.646;10.900;2022-10-16T11:55:46;21.47;;;13.70;;
59569;SDS011;45393;44.646;10.900;2022-10-16T12:00:50;20.83;;;13.90;;
59569;SDS011;45393;44.646;10.900;2022-10-16T12:03:35;19.10;;;13.90;;
59569;SDS011;45393;44.646;10.900;2022-10-16T12:08:30;24.13;;;17.00;;
59569;SDS011;45393;44.646;10.900;2022-10-16T12:13:43;22.10;;;15.70;;
59569;SDS011;45393;44.646;10.900;2022-10-16T12:18:39;20.80;;;14.77;;
59569;SDS011;45393;44.646;10.900;2022-10-16T12:21:06;22.63;;;16.03;;
59569;SDS011;45393;44.646;10.900;2022-10-16T12:23:36;21.17;;;15.27;;
59569;SDS011;45393;44.646;10.900;2022-10-16T12:26:02;20.17;;;14.83;;
59569;SDS011;45393;44.646;10.900;2022-10-16T12:28:30;22.17;;;14.00;;
59569;SDS011;45393;44.646;10.900;2022-10-16T12:31:00;22.47;;;14.00;;
59569;SDS011;45393;44.646;10.900;2022-10-16T12:33:28;14.60;;;11.67;;
59569;SDS011;45393;44.646;10.900;2022-10-16T12:35:54;19.40;;;13.80;;
59569;SDS011;45393;44.646;10.900;2022-10-16T12:38:28;19.27;;;13.67;;
59569;SDS011;45393;44.646;10.900;2022-10-16T12:46:05;22.47;;;15.90;;
59569;SDS011;45393;44.646;10.900;2022-10-16T12:48:31;23.20;;;16.57;;
59569;SDS011;45393;44.646;10.900;2022-10-16T12:51:09;21.10;;;15.90;;
59569;SDS011;45393;44.646;10.900;2022-10-16T12:53:35;23.20;;;16.43;;
59569;SDS011;45393;44.646;10.900;2022-10-16T12:56:09;35.57;;;24.43;;
59569;SDS011;45393;44.646;10.900;2022-10-16T13:06:56;29.93;;;20.73;;
59569;SDS011;45393;44.646;10.900;2022-10-16T13:10:10;26.30;;;19.77;;
59569;SDS011;45393;44.646;10.900;2022-10-16T13:14:53;24.63;;;18.40;;
59569;SDS011;45393;44.646;10.900;2022-10-16T13:20:29;27.30;;;20.73;;
59569;SDS011;45393;44.646;10.900;2022-10-16T13:28:11;31.30;;;20.77;;
59569;SDS011;45393;44.646;10.900;2022-10-16T13:30:39;27.13;;;19.77;;
59569;SDS011;45393;44.646;10.900;2022-10-16T13:35:35;27.50;;;20.03;;
59569;SDS011;45393;44.646;10.900;2022-10-16T13:40:47;25.87;;;18.87;;
59569;SDS011;45393;44.646;10.900;2022-10-16T13:43:13;28.93;;;19.80;;
59569;SDS011;45393;44.646;10.900;2022-10-16T13:45:40;27.20;;;18.90;;
59569;SDS011;45393;44.646;10.900;2022-10-16T13:48:08;28.77;;;20.20;;
59569;SDS011;45393;44.646;10.900;2022-10-16T13:50:37;30.47;;;20.40;;
59569;SDS011;45393;44.646;10.900;2022-10-16T13:53:04;28.63;;;19.67;;
59569;SDS011;45393;44.646;10.900;2022-10-16T13:55:30;28.43;;;19.47;;
59569;SDS011;45393;44.646;10.900;2022-10-16T13:58:12;22.63;;;16.40;;
59569;SDS011;45393;44.646;10.900;2022-10-16T14:00:38;22.67;;;17.20;;
59569;SDS011;45393;44.646;10.900;2022-10-16T14:03:06;21.03;;;16.73;;
59569;SDS011;45393;44.646;10.900;2022-10-16T14:05:32;23.03;;;16.87;;
59569;SDS011;45393;44.646;10.900;2022-10-16T14:07:59;27.63;;;17.73;;
59569;SDS011;45393;44.646;10.900;2022-10-16T14:10:26;24.67;;;18.23;;
59569;SDS011;45393;44.646;10.900;2022-10-16T14:13:03;22.83;;;18.33;;
59569;SDS011;45393;44.646;10.900;2022-10-16T14:15:31;29.27;;;19.33;;
59569;SDS011;45393;44.646;10.900;2022-10-16T14:17:57;29.07;;;20.03;;
59569;SDS011;45393;44.646;10.900;2022-10-16T14:20:25;28.03;;;20.97;;
59569;SDS011;45393;44.646;10.900;2022-10-16T14:23:02;32.33;;;20.07;;
59569;SDS011;45393;44.646;10.900;2022-10-16T14:25:30;22.43;;;17.60;;
59569;SDS011;45393;44.646;10.900;2022-10-16T14:30:23;27.10;;;19.57;;
59569;SDS011;45393;44.646;10.900;2022-10-16T14:33:33;26.83;;;17.70;;
59569;SDS011;45393;44.646;10.900;2022-10-16T14:35:39;23.93;;;18.07;;
59569;SDS011;45393;44.646;10.900;2022-10-16T14:38:06;25.93;;;17.60;;
59569;SDS011;45393;44.646;10.900;2022-10-16T14:40:33;22.20;;;16.83;;
59569;SDS011;45393;44.646;10.900;2022-10-16T14:43:01;21.70;;;16.70;;
59569;SDS011;45393;44.646;10.900;2022-10-16T14:45:28;25.37;;;17.20;;
59569;SDS011;45393;44.646;10.900;2022-10-16T14:47:56;19.43;;;16.10;;
59569;SDS011;45393;44.646;10.900;2022-10-16T14:50:23;24.13;;;17.87;;
59569;SDS011;45393;44.646;10.900;2022-10-16T14:52:49;28.53;;;17.73;;
59569;SDS011;45393;44.646;10.900;2022-10-16T14:55:15;23.30;;;17.23;;
59569;SDS011;45393;44.646;10.900;2022-10-16T14:57:42;22.70;;;17.67;;
59569;SDS011;45393;44.646;10.900;2022-10-16T15:00:18;25.83;;;17.37;;
59569;SDS011;45393;44.646;10.900;2022-10-16T15:02:45;26.57;;;16.77;;
59569;SDS011;45393;44.646;10.900;2022-10-16T15:05:17;24.20;;;17.23;;
59569;SDS011;45393;44.646;10.900;2022-10-16T15:07:43;22.73;;;17.27;;
59569;SDS011;45393;44.646;10.900;2022-10-16T15:10:10;20.13;;;15.80;;
59569;SDS011;45393;44.646;10.900;2022-10-16T15:12:36;22.07;;;16.50;;
59569;SDS011;45393;44.646;10.900;2022-10-16T15:15:09;24.57;;;16.73;;
59569;SDS011;45393;44.646;10.900;2022-10-16T15:17:41;21.77;;;15.97;;
59569;SDS011;45393;44.646;10.900;2022-10-16T15:20:07;22.70;;;15.23;;
59569;SDS011;45393;44.646;10.900;2022-10-16T15:22:33;24.37;;;16.20;;
59569;SDS011;45393;44.646;10.900;2022-10-16T15:24:59;17.33;;;14.00;;
59569;SDS011;45393;44.646;10.900;2022-10-16T15:27:25;23.27;;;14.90;;
59569;SDS011;45393;44.646;10.900;2022-10-16T15:29:51;18.90;;;14.60;;
59569;SDS011;45393;44.646;10.900;2022-10-16T15:32:17;20.20;;;14.80;;
59569;SDS011;45393;44.646;10.900;2022-10-16T15:34:43;20.40;;;13.40;;
59569;SDS011;45393;44.646;10.900;2022-10-16T15:37:09;17.87;;;13.50;;
59569;SDS011;45393;44.646;10.900;2022-10-16T15:39:36;20.07;;;13.20;;
59569;SDS011;45393;44.646;10.900;2022-10-16T15:42:03;16.67;;;13.17;;
59569;SDS011;45393;44.646;10.900;2022-10-16T15:44:30;22.80;;;13.50;;
59569;SDS011;45393;44.646;10.900;2022-10-16T15:46:56;20.43;;;13.50;;
59569;SDS011;45393;44.646;10.900;2022-10-16T15:49:22;16.77;;;12.83;;
59569;SDS011;45393;44.646;10.900;2022-10-16T15:51:49;18.47;;;12.77;;
59569;SDS011;45393;44.646;10.900;2022-10-16T15:54:15;16.33;;;12.80;;
59569;SDS011;45393;44.646;10.900;2022-10-16T15:56:41;16.80;;;12.87;;
59569;SDS011;45393;44.646;10.900;2022-10-16T15:59:07;14.20;;;10.80;;
59569;SDS011;45393;44.646;10.900;2022-10-16T16:01:34;14.33;;;12.03;;
59569;SDS011;45393;44.646;10.900;2022-10-16T16:04:00;16.37;;;12.90;;